This is the latest recevied weather packets stored in our database for station/object JH1LWU-13. If no packets are shown the sender has not sent any weather packets the latest 10 day(s).
| Time | Temp. | Humidity | Pressure | Rain* | Wind** | Luminosity | Snow |
|---|---|---|---|---|---|---|---|
| 1777694530 | 26.67° C | 23% | 1003 hPa | 0 mm | - | - | - |
| 1777692729 | 27.22° C | 22% | 1003 hPa | 0 mm | - | - | - |
| 1777690928 | 26.67° C | 24% | 1002 hPa | 0 mm | - | - | - |
| 1777689127 | 26.11° C | 24% | 1000 hPa | 0 mm | - | - | - |
| 1777687326 | 25.56° C | 24% | 1001 hPa | 0 mm | - | - | - |
| 1777685525 | 26.11° C | 30% | 1000 hPa | 0 mm | - | - | - |
| 1777683724 | 23.89° C | 36% | 1000 hPa | 0 mm | - | - | - |
| 1777681923 | 22.78° C | 35% | 1001 hPa | 0 mm | - | - | - |
| 1777680122 | 23.89° C | 28% | 1000 hPa | 0 mm | - | - | - |
| 1777678321 | 22.78° C | 32% | 1000 hPa | 0 mm | - | - | - |
| 1777676520 | 21.11° C | 34% | 999 hPa | 0 mm | - | - | - |
| 1777674719 | 19.44° C | 37% | 998 hPa | 0 mm | - | - | - |
| 1777672918 | 18.33° C | 42% | 998 hPa | 0 mm | - | - | - |
| 1777671117 | 17.22° C | 43% | 996 hPa | 0 mm | - | - | - |
| 1777669316 | 16.11° C | 49% | 995 hPa | 0 mm | - | - | - |
| 1777667515 | 15° C | 52% | 996 hPa | 0 mm | - | - | - |
| 1777665714 | 14.44° C | 54% | 996 hPa | 0 mm | - | - | - |
| 1777663913 | 13.89° C | 56% | 993 hPa | 0 mm | - | - | - |
| 1777662112 | 13.33° C | 60% | 993 hPa | 0 mm | - | - | - |
| 1777660311 | 13.33° C | 60% | 993 hPa | 0 mm | - | - | - |
| 1777658510 | 13.33° C | 60% | 991 hPa | 0 mm | - | - | - |
| 1777656709 | 13.89° C | 60% | 991 hPa | 0 mm | - | - | - |
| 1777654908 | 13.33° C | 64% | 990 hPa | 0 mm | - | - | - |
| 1777653107 | 12.78° C | 67% | 990 hPa | 0 mm | - | - | - |
| 1777651306 | 12.78° C | 66% | 992 hPa | 0 mm | - | - | - |
* Rain latest hour (hover to see other rain measurements)
** Current wind speed in m/s (hover to see current wind gust speed)